sensor_id;sensor_type;location;lat;lon;timestamp;pressure;altitude;pressure_sealevel;temperature;humidity
59789;BME280;47353;51.614;5.530;2022-10-16T00:00:40;100946.44;;;11.71;100.00
59789;BME280;47353;51.614;5.530;2022-10-16T00:03:06;100935.94;;;11.63;100.00
59789;BME280;47353;51.614;5.530;2022-10-16T00:05:33;100939.25;;;11.75;100.00
59789;BME280;47353;51.614;5.530;2022-10-16T00:08:02;100934.81;;;11.69;100.00
59789;BME280;47353;51.614;5.530;2022-10-16T00:10:28;100938.97;;;11.66;100.00
59789;BME280;47353;51.614;5.530;2022-10-16T00:12:53;100934.00;;;11.63;100.00
59789;BME280;47353;51.614;5.530;2022-10-16T00:15:19;100929.00;;;11.65;100.00
59789;BME280;47353;51.614;5.530;2022-10-16T00:17:44;100939.19;;;11.80;100.00
59789;BME280;47353;51.614;5.530;2022-10-16T00:20:10;100944.22;;;11.73;100.00
59789;BME280;47353;51.614;5.530;2022-10-16T00:22:35;100943.69;;;11.66;100.00
59789;BME280;47353;51.614;5.530;2022-10-16T00:25:01;100935.94;;;11.58;100.00
59789;BME280;47353;51.614;5.530;2022-10-16T00:27:26;100944.50;;;11.61;100.00
59789;BME280;47353;51.614;5.530;2022-10-16T00:29:51;100948.66;;;11.59;100.00
59789;BME280;47353;51.614;5.530;2022-10-16T00:32:18;100952.28;;;11.59;100.00
59789;BME280;47353;51.614;5.530;2022-10-16T00:34:44;100941.47;;;11.63;100.00
59789;BME280;47353;51.614;5.530;2022-10-16T00:37:09;100943.41;;;11.57;100.00
59789;BME280;47353;51.614;5.530;2022-10-16T00:39:35;100940.63;;;11.57;100.00
59789;BME280;47353;51.614;5.530;2022-10-16T00:42:00;100947.03;;;11.53;100.00
59789;BME280;47353;51.614;5.530;2022-10-16T00:44:47;100943.69;;;11.56;100.00
59789;BME280;47353;51.614;5.530;2022-10-16T00:47:40;100955.91;;;11.45;100.00
59789;BME280;47353;51.614;5.530;2022-10-16T00:50:15;100944.50;;;11.61;100.00
59789;BME280;47353;51.614;5.530;2022-10-16T00:52:44;100959.53;;;11.45;100.00
59789;BME280;47353;51.614;5.530;2022-10-16T00:55:11;100957.31;;;11.42;100.00
59789;BME280;47353;51.614;5.530;2022-10-16T00:57:37;100945.38;;;11.42;100.00
59789;BME280;47353;51.614;5.530;2022-10-16T01:00:08;100956.47;;;11.37;100.00
59789;BME280;47353;51.614;5.530;2022-10-16T01:02:34;100957.88;;;11.34;100.00
59789;BME280;47353;51.614;5.530;2022-10-16T01:04:59;100951.47;;;11.34;100.00
59789;BME280;47353;51.614;5.530;2022-10-16T01:10:35;100949.00;;;11.37;100.00
59789;BME280;47353;51.614;5.530;2022-10-16T01:13:21;100931.84;;;11.20;100.00
59789;BME280;47353;51.614;5.530;2022-10-16T01:16:02;100937.94;;;11.22;100.00
59789;BME280;47353;51.614;5.530;2022-10-16T01:21:30;100952.06;;;11.21;100.00
59789;BME280;47353;51.614;5.530;2022-10-16T01:24:06;100948.75;;;11.24;100.00
59789;BME280;47353;51.614;5.530;2022-10-16T01:29:32;100954.56;;;11.22;100.00
59789;BME280;47353;51.614;5.530;2022-10-16T01:32:05;100951.22;;;11.25;100.00
59789;BME280;47353;51.614;5.530;2022-10-16T01:34:48;100952.31;;;11.24;100.00
59789;BME280;47353;51.614;5.530;2022-10-16T01:37:23;100950.94;;;11.27;100.00
59789;BME280;47353;51.614;5.530;2022-10-16T01:39:51;100946.78;;;11.24;100.00
59789;BME280;47353;51.614;5.530;2022-10-16T01:42:22;100947.91;;;11.28;100.00
59789;BME280;47353;51.614;5.530;2022-10-16T01:44:51;100945.41;;;11.32;100.00
59789;BME280;47353;51.614;5.530;2022-10-16T01:47:17;100947.31;;;11.41;100.00
59789;BME280;47353;51.614;5.530;2022-10-16T01:49:44;100950.94;;;11.42;100.00
59789;BME280;47353;51.614;5.530;2022-10-16T01:52:14;100947.91;;;11.33;100.00
59789;BME280;47353;51.614;5.530;2022-10-16T01:54:42;100946.50;;;11.36;100.00
59789;BME280;47353;51.614;5.530;2022-10-16T01:57:10;100946.22;;;11.32;100.00
59789;BME280;47353;51.614;5.530;2022-10-16T01:59:43;100947.59;;;11.45;100.00
59789;BME280;47353;51.614;5.530;2022-10-16T02:02:10;100940.13;;;11.40;100.00
59789;BME280;47353;51.614;5.530;2022-10-16T02:04:53;100950.91;;;11.47;100.00
59789;BME280;47353;51.614;5.530;2022-10-16T02:07:20;100953.13;;;11.40;100.00
59789;BME280;47353;51.614;5.530;2022-10-16T02:09:45;100948.97;;;11.52;100.00
59789;BME280;47353;51.614;5.530;2022-10-16T02:12:38;100946.75;;;11.54;100.00
59789;BME280;47353;51.614;5.530;2022-10-16T02:15:05;100962.84;;;11.62;100.00
59789;BME280;47353;51.614;5.530;2022-10-16T02:17:30;100962.25;;;11.60;100.00
59789;BME280;47353;51.614;5.530;2022-10-16T02:19:57;100951.72;;;11.57;100.00
59789;BME280;47353;51.614;5.530;2022-10-16T02:22:36;100965.59;;;11.57;100.00
59789;BME280;47353;51.614;5.530;2022-10-16T02:27:57;100954.50;;;11.52;100.00
59789;BME280;47353;51.614;5.530;2022-10-16T02:30:32;100955.34;;;11.53;100.00
59789;BME280;47353;51.614;5.530;2022-10-16T02:33:00;100945.38;;;11.52;100.00
59789;BME280;47353;51.614;5.530;2022-10-16T02:35:28;100945.66;;;11.50;100.00
59789;BME280;47353;51.614;5.530;2022-10-16T02:37:55;100955.63;;;11.51;100.00
59789;BME280;47353;51.614;5.530;2022-10-16T02:40:21;100953.97;;;11.50;100.00
59789;BME280;47353;51.614;5.530;2022-10-16T02:42:50;100963.38;;;11.44;100.00
59789;BME280;47353;51.614;5.530;2022-10-16T02:45:16;100968.13;;;11.39;100.00
59789;BME280;47353;51.614;5.530;2022-10-16T02:47:42;100973.38;;;11.35;100.00
59789;BME280;47353;51.614;5.530;2022-10-16T02:50:08;100959.53;;;11.35;100.00
59789;BME280;47353;51.614;5.530;2022-10-16T02:52:33;100953.41;;;11.38;100.00
59789;BME280;47353;51.614;5.530;2022-10-16T02:54:59;100952.03;;;11.36;100.00
59789;BME280;47353;51.614;5.530;2022-10-16T02:57:24;100942.06;;;11.40;100.00
59789;BME280;47353;51.614;5.530;2022-10-16T02:59:50;100946.78;;;11.39;100.00
59789;BME280;47353;51.614;5.530;2022-10-16T03:02:15;100942.38;;;11.33;100.00
59789;BME280;47353;51.614;5.530;2022-10-16T03:04:40;100954.25;;;11.29;100.00
59789;BME280;47353;51.614;5.530;2022-10-16T03:07:06;100947.06;;;11.23;100.00
59789;BME280;47353;51.614;5.530;2022-10-16T03:09:32;100955.38;;;11.28;100.00
59789;BME280;47353;51.614;5.530;2022-10-16T03:11:58;100963.41;;;11.29;100.00
59789;BME280;47353;51.614;5.530;2022-10-16T03:14:23;100960.06;;;11.27;100.00
59789;BME280;47353;51.614;5.530;2022-10-16T03:16:49;100961.75;;;11.23;100.00
59789;BME280;47353;51.614;5.530;2022-10-16T03:19:16;100967.03;;;11.30;100.00
59789;BME280;47353;51.614;5.530;2022-10-16T03:21:41;100970.06;;;11.23;100.00
59789;BME280;47353;51.614;5.530;2022-10-16T03:24:07;100979.50;;;11.22;100.00
59789;BME280;47353;51.614;5.530;2022-10-16T03:26:32;100984.22;;;11.32;100.00
59789;BME280;47353;51.614;5.530;2022-10-16T03:28:58;100988.06;;;11.31;100.00
59789;BME280;47353;51.614;5.530;2022-10-16T03:31:23;100990.31;;;11.24;100.00
59789;BME280;47353;51.614;5.530;2022-10-16T03:33:48;100992.22;;;11.23;100.00
59789;BME280;47353;51.614;5.530;2022-10-16T03:36:14;101003.03;;;11.20;100.00
59789;BME280;47353;51.614;5.530;2022-10-16T03:38:39;100991.66;;;11.21;100.00
59789;BME280;47353;51.614;5.530;2022-10-16T03:41:04;101003.88;;;11.30;100.00
59789;BME280;47353;51.614;5.530;2022-10-16T03:43:30;100993.59;;;11.26;100.00
59789;BME280;47353;51.614;5.530;2022-10-16T03:45:55;100991.41;;;11.33;100.00
59789;BME280;47353;51.614;5.530;2022-10-16T03:48:21;100997.50;;;11.30;100.00
59789;BME280;47353;51.614;5.530;2022-10-16T03:50:46;100986.94;;;11.37;100.00
59789;BME280;47353;51.614;5.530;2022-10-16T03:53:14;100995.81;;;11.34;100.00
59789;BME280;47353;51.614;5.530;2022-10-16T03:55:41;100992.50;;;11.37;100.00
59789;BME280;47353;51.614;5.530;2022-10-16T03:58:07;100990.56;;;11.32;100.00
59789;BME280;47353;51.614;5.530;2022-10-16T04:00:32;101000.53;;;11.38;100.00
59789;BME280;47353;51.614;5.530;2022-10-16T04:02:58;101004.97;;;11.39;100.00
59789;BME280;47353;51.614;5.530;2022-10-16T04:05:23;100998.31;;;11.40;100.00
59789;BME280;47353;51.614;5.530;2022-10-16T04:07:49;100997.22;;;11.36;100.00
59789;BME280;47353;51.614;5.530;2022-10-16T04:10:14;101006.91;;;11.39;100.00
59789;BME280;47353;51.614;5.530;2022-10-16T04:12:40;101005.78;;;11.40;100.00
59789;BME280;47353;51.614;5.530;2022-10-16T04:15:05;101011.63;;;11.43;100.00
59789;BME280;47353;51.614;5.530;2022-10-16T04:17:31;101015.22;;;11.44;100.00
59789;BME280;47353;51.614;5.530;2022-10-16T04:19:56;101014.97;;;11.50;100.00
59789;BME280;47353;51.614;5.530;2022-10-16T04:22:21;101012.19;;;11.50;100.00
59789;BME280;47353;51.614;5.530;2022-10-16T04:24:47;101009.66;;;11.49;100.00
59789;BME280;47353;51.614;5.530;2022-10-16T04:27:12;101012.75;;;11.42;100.00
59789;BME280;47353;51.614;5.530;2022-10-16T04:29:38;101020.50;;;11.40;100.00
59789;BME280;47353;51.614;5.530;2022-10-16T04:32:03;101021.91;;;11.38;100.00
59789;BME280;47353;51.614;5.530;2022-10-16T04:34:28;101012.75;;;11.42;100.00
59789;BME280;47353;51.614;5.530;2022-10-16T04:36:54;101007.19;;;11.42;100.00
59789;BME280;47353;51.614;5.530;2022-10-16T04:39:19;101003.88;;;11.40;100.00
59789;BME280;47353;51.614;5.530;2022-10-16T04:41:45;101017.72;;;11.35;100.00
59789;BME280;47353;51.614;5.530;2022-10-16T04:44:10;101026.59;;;11.37;100.00
59789;BME280;47353;51.614;5.530;2022-10-16T04:46:35;101019.13;;;11.38;100.00
59789;BME280;47353;51.614;5.530;2022-10-16T04:49:01;101023.25;;;11.35;100.00
59789;BME280;47353;51.614;5.530;2022-10-16T04:51:26;101020.75;;;11.34;100.00
59789;BME280;47353;51.614;5.530;2022-10-16T04:53:53;101035.75;;;11.33;100.00
59789;BME280;47353;51.614;5.530;2022-10-16T04:56:18;101034.38;;;11.30;100.00
59789;BME280;47353;51.614;5.530;2022-10-16T04:58:43;101041.28;;;11.33;100.00
59789;BME280;47353;51.614;5.530;2022-10-16T05:01:09;101038.22;;;11.24;100.00
59789;BME280;47353;51.614;5.530;2022-10-16T05:03:34;101044.03;;;11.28;100.00
59789;BME280;47353;51.614;5.530;2022-10-16T05:06:00;101041.28;;;11.28;100.00
59789;BME280;47353;51.614;5.530;2022-10-16T05:08:25;101050.72;;;11.32;100.00
59789;BME280;47353;51.614;5.530;2022-10-16T05:10:51;101051.25;;;11.24;100.00
59789;BME280;47353;51.614;5.530;2022-10-16T05:13:16;101060.94;;;11.21;100.00
59789;BME280;47353;51.614;5.530;2022-10-16T05:15:41;101067.03;;;11.18;100.00
59789;BME280;47353;51.614;5.530;2022-10-16T05:18:08;101070.09;;;11.27;100.00
59789;BME280;47353;51.614;5.530;2022-10-16T05:20:33;101073.69;;;11.22;100.00
59789;BME280;47353;51.614;5.530;2022-10-16T05:22:59;101063.16;;;11.24;100.00
59789;BME280;47353;51.614;5.530;2022-10-16T05:25:24;101068.72;;;11.29;100.00
59789;BME280;47353;51.614;5.530;2022-10-16T05:27:50;101065.13;;;11.24;100.00
59789;BME280;47353;51.614;5.530;2022-10-16T05:30:16;101078.41;;;11.27;100.00
59789;BME280;47353;51.614;5.530;2022-10-16T05:32:46;101081.44;;;11.20;100.00
59789;BME280;47353;51.614;5.530;2022-10-16T05:35:12;101085.59;;;11.23;100.00
59789;BME280;47353;51.614;5.530;2022-10-16T05:37:37;101092.25;;;11.17;100.00
59789;BME280;47353;51.614;5.530;2022-10-16T05:40:03;101098.59;;;11.12;100.00
59789;BME280;47353;51.614;5.530;2022-10-16T05:42:29;101104.41;;;11.11;100.00
59789;BME280;47353;51.614;5.530;2022-10-16T05:44:55;101107.19;;;11.11;100.00
59789;BME280;47353;51.614;5.530;2022-10-16T05:47:20;101114.94;;;11.09;100.00
59789;BME280;47353;51.614;5.530;2022-10-16T05:49:46;101116.91;;;11.08;100.00
59789;BME280;47353;51.614;5.530;2022-10-16T05:52:11;101122.41;;;11.03;100.00
59789;BME280;47353;51.614;5.530;2022-10-16T05:54:37;101129.63;;;10.99;100.00
59789;BME280;47353;51.614;5.530;2022-10-16T05:57:02;101134.88;;;10.96;100.00
59789;BME280;47353;51.614;5.530;2022-10-16T05:59:27;101145.09;;;10.95;100.00
59789;BME280;47353;51.614;5.530;2022-10-16T06:01:53;101150.09;;;10.98;100.00
59789;BME280;47353;51.614;5.530;2022-10-16T06:04:18;101150.09;;;10.98;100.00
59789;BME280;47353;51.614;5.530;2022-10-16T06:06:44;101158.41;;;10.98;100.00
59789;BME280;47353;51.614;5.530;2022-10-16T06:09:09;101158.69;;;10.92;100.00
59789;BME280;47353;51.614;5.530;2022-10-16T06:11:36;101160.03;;;10.89;100.00
59789;BME280;47353;51.614;5.530;2022-10-16T06:14:02;101164.50;;;10.90;100.00
59789;BME280;47353;51.614;5.530;2022-10-16T06:16:32;101170.53;;;10.82;100.00
59789;BME280;47353;51.614;5.530;2022-10-16T06:18:58;101164.75;;;10.89;100.00
59789;BME280;47353;51.614;5.530;2022-10-16T06:21:26;101171.13;;;10.89;100.00
59789;BME280;47353;51.614;5.530;2022-10-16T06:23:53;101176.38;;;10.91;100.00
59789;BME280;47353;51.614;5.530;2022-10-16T06:26:21;101180.53;;;10.88;100.00
59789;BME280;47353;51.614;5.530;2022-10-16T06:28:47;101173.03;;;10.84;100.00
59789;BME280;47353;51.614;5.530;2022-10-16T06:31:13;101179.97;;;10.86;100.00
59789;BME280;47353;51.614;5.530;2022-10-16T06:33:39;101178.59;;;10.89;100.00
59789;BME280;47353;51.614;5.530;2022-10-16T06:36:09;101194.13;;;10.90;100.00
59789;BME280;47353;51.614;5.530;2022-10-16T06:38:36;101188.31;;;10.91;100.00
59789;BME280;47353;51.614;5.530;2022-10-16T06:41:02;101199.69;;;10.95;100.00
59789;BME280;47353;51.614;5.530;2022-10-16T06:43:28;101207.72;;;10.96;100.00
59789;BME280;47353;51.614;5.530;2022-10-16T06:45:58;101210.22;;;10.98;100.00
59789;BME280;47353;51.614;5.530;2022-10-16T06:48:25;101198.88;;;10.99;100.00
59789;BME280;47353;51.614;5.530;2022-10-16T06:53:33;101216.38;;;11.15;100.00
59789;BME280;47353;51.614;5.530;2022-10-16T06:56:14;101224.97;;;11.23;100.00
59789;BME280;47353;51.614;5.530;2022-10-16T06:58:40;101223.34;;;11.32;100.00
59789;BME280;47353;51.614;5.530;2022-10-16T07:01:05;101225.84;;;11.34;100.00
59789;BME280;47353;51.614;5.530;2022-10-16T07:03:31;101229.22;;;11.41;100.00
59789;BME280;47353;51.614;5.530;2022-10-16T07:05:56;101232.84;;;11.51;100.00
59789;BME280;47353;51.614;5.530;2022-10-16T07:08:22;101235.38;;;11.63;100.00
59789;BME280;47353;51.614;5.530;2022-10-16T07:10:48;101240.69;;;11.74;100.00
59789;BME280;47353;51.614;5.530;2022-10-16T07:13:13;101240.13;;;11.88;100.00
59789;BME280;47353;51.614;5.530;2022-10-16T07:15:40;101252.91;;;12.04;100.00
59789;BME280;47353;51.614;5.530;2022-10-16T07:18:06;101245.97;;;12.11;100.00
59789;BME280;47353;51.614;5.530;2022-10-16T07:20:31;101265.66;;;12.25;100.00
59789;BME280;47353;51.614;5.530;2022-10-16T07:22:57;101264.00;;;12.39;100.00
59789;BME280;47353;51.614;5.530;2022-10-16T07:25:22;101265.13;;;12.43;100.00
59789;BME280;47353;51.614;5.530;2022-10-16T07:27:47;101271.22;;;12.60;100.00
59789;BME280;47353;51.614;5.530;2022-10-16T07:30:13;101276.19;;;12.73;100.00
59789;BME280;47353;51.614;5.530;2022-10-16T07:32:38;101284.22;;;12.84;100.00
59789;BME280;47353;51.614;5.530;2022-10-16T07:35:04;101290.34;;;13.01;100.00
59789;BME280;47353;51.614;5.530;2022-10-16T07:37:30;101286.31;;;13.32;100.00
59789;BME280;47353;51.614;5.530;2022-10-16T07:39:55;101298.16;;;13.58;100.00
59789;BME280;47353;51.614;5.530;2022-10-16T07:42:20;101288.66;;;13.69;100.00
59789;BME280;47353;51.614;5.530;2022-10-16T07:44:46;101293.09;;;13.70;100.00
59789;BME280;47353;51.614;5.530;2022-10-16T07:47:11;101304.63;;;13.97;100.00
59789;BME280;47353;51.614;5.530;2022-10-16T07:49:37;101307.13;;;14.37;99.31
59789;BME280;47353;51.614;5.530;2022-10-16T07:52:02;101308.75;;;14.77;96.69
59789;BME280;47353;51.614;5.530;2022-10-16T07:54:27;101322.56;;;15.16;92.69
59789;BME280;47353;51.614;5.530;2022-10-16T07:56:53;101313.09;;;15.64;91.59
59789;BME280;47353;51.614;5.530;2022-10-16T07:59:18;101332.56;;;16.24;86.51
59789;BME280;47353;51.614;5.530;2022-10-16T08:01:44;101331.91;;;16.51;83.99
59789;BME280;47353;51.614;5.530;2022-10-16T08:04:09;101328.03;;;16.98;83.79
59789;BME280;47353;51.614;5.530;2022-10-16T08:06:37;101328.34;;;17.37;80.68
59789;BME280;47353;51.614;5.530;2022-10-16T08:09:03;101329.03;;;17.47;77.17
59789;BME280;47353;51.614;5.530;2022-10-16T08:11:28;101334.41;;;17.30;77.15
59789;BME280;47353;51.614;5.530;2022-10-16T08:13:54;101342.66;;;17.35;76.44
59789;BME280;47353;51.614;5.530;2022-10-16T08:16:20;101350.19;;;17.67;76.10
59789;BME280;47353;51.614;5.530;2022-10-16T08:18:45;101362.50;;;17.93;73.96
59789;BME280;47353;51.614;5.530;2022-10-16T08:21:16;101361.94;;;18.18;73.15
59789;BME280;47353;51.614;5.530;2022-10-16T08:23:42;101372.94;;;18.64;72.66
59789;BME280;47353;51.614;5.530;2022-10-16T08:26:09;101377.97;;;18.75;72.12
59789;BME280;47353;51.614;5.530;2022-10-16T08:28:35;101375.97;;;18.76;69.00
59789;BME280;47353;51.614;5.530;2022-10-16T08:31:11;101378.50;;;18.42;71.90
59789;BME280;47353;51.614;5.530;2022-10-16T08:33:37;101373.84;;;18.23;71.74
59789;BME280;47353;51.614;5.530;2022-10-16T08:36:04;101371.56;;;18.39;69.65
59789;BME280;47353;51.614;5.530;2022-10-16T08:38:30;101377.22;;;18.61;70.07
59789;BME280;47353;51.614;5.530;2022-10-16T08:46:56;101384.13;;;19.30;68.63
59789;BME280;47353;51.614;5.530;2022-10-16T08:49:27;101395.63;;;19.89;65.46
59789;BME280;47353;51.614;5.530;2022-10-16T08:51:55;101397.44;;;19.77;63.20
59789;BME280;47353;51.614;5.530;2022-10-16T08:54:32;101398.47;;;19.50;64.21
59789;BME280;47353;51.614;5.530;2022-10-16T08:57:28;101408.09;;;20.06;67.27
59789;BME280;47353;51.614;5.530;2022-10-16T09:00:00;101410.69;;;21.01;60.58
59789;BME280;47353;51.614;5.530;2022-10-16T09:03:03;101415.66;;;21.12;62.07
59789;BME280;47353;51.614;5.530;2022-10-16T09:06:06;101417.44;;;21.25;61.36
59789;BME280;47353;51.614;5.530;2022-10-16T09:16:47;101428.41;;;21.10;59.41
59789;BME280;47353;51.614;5.530;2022-10-16T09:19:24;101439.66;;;21.35;57.95
59789;BME280;47353;51.614;5.530;2022-10-16T09:21:54;101442.25;;;21.58;56.02
59789;BME280;47353;51.614;5.530;2022-10-16T09:24:23;101441.84;;;22.43;53.60
59789;BME280;47353;51.614;5.530;2022-10-16T09:26:50;101438.66;;;22.73;53.40
59789;BME280;47353;51.614;5.530;2022-10-16T09:29:16;101449.47;;;23.13;50.53
59789;BME280;47353;51.614;5.530;2022-10-16T09:31:45;101442.63;;;23.34;49.40
59789;BME280;47353;51.614;5.530;2022-10-16T09:34:34;101454.78;;;23.91;52.02
59789;BME280;47353;51.614;5.530;2022-10-16T09:37:04;101456.78;;;23.79;48.73
59789;BME280;47353;51.614;5.530;2022-10-16T09:39:47;101447.00;;;23.88;50.66
59789;BME280;47353;51.614;5.530;2022-10-16T09:42:21;101445.94;;;24.77;48.68
59789;BME280;47353;51.614;5.530;2022-10-16T09:44:49;101444.91;;;24.70;45.24
59789;BME280;47353;51.614;5.530;2022-10-16T09:47:26;101446.91;;;24.57;45.78
59789;BME280;47353;51.614;5.530;2022-10-16T09:49:53;101449.13;;;24.63;44.87
59789;BME280;47353;51.614;5.530;2022-10-16T09:52:19;101438.97;;;24.87;44.27
59789;BME280;47353;51.614;5.530;2022-10-16T09:55:02;101457.53;;;25.67;45.15
59789;BME280;47353;51.614;5.530;2022-10-16T09:57:37;101459.53;;;25.66;41.71
59789;BME280;47353;51.614;5.530;2022-10-16T10:00:08;101463.09;;;25.08;42.32
59789;BME280;47353;51.614;5.530;2022-10-16T10:02:35;101461.63;;;24.87;44.00
59789;BME280;47353;51.614;5.530;2022-10-16T10:05:04;101467.31;;;24.38;44.48
59789;BME280;47353;51.614;5.530;2022-10-16T10:07:32;101459.66;;;25.15;42.90
59789;BME280;47353;51.614;5.530;2022-10-16T10:10:00;101465.78;;;25.87;42.72
59789;BME280;47353;51.614;5.530;2022-10-16T10:12:33;101453.34;;;26.89;41.28
59789;BME280;47353;51.614;5.530;2022-10-16T10:15:11;101462.69;;;27.65;39.32
59789;BME280;47353;51.614;5.530;2022-10-16T10:17:51;101468.47;;;27.50;40.18
59789;BME280;47353;51.614;5.530;2022-10-16T10:20:27;101461.22;;;28.17;38.99
59789;BME280;47353;51.614;5.530;2022-10-16T10:22:53;101466.72;;;29.37;34.94
59789;BME280;47353;51.614;5.530;2022-10-16T10:25:26;101470.72;;;30.02;33.85
59789;BME280;47353;51.614;5.530;2022-10-16T10:30:40;101474.38;;;28.47;35.62
59789;BME280;47353;51.614;5.530;2022-10-16T10:38:50;101483.09;;;29.43;35.34
59789;BME280;47353;51.614;5.530;2022-10-16T10:53:24;101481.25;;;28.98;34.19
59789;BME280;47353;51.614;5.530;2022-10-16T10:56:05;101477.06;;;29.48;33.86
59789;BME280;47353;51.614;5.530;2022-10-16T11:01:26;101474.97;;;28.11;33.89
59789;BME280;47353;51.614;5.530;2022-10-16T11:04:01;101483.50;;;29.12;32.15
59789;BME280;47353;51.614;5.530;2022-10-16T11:06:36;101494.19;;;27.95;34.41
59789;BME280;47353;51.614;5.530;2022-10-16T11:09:24;101496.25;;;27.56;34.92
59789;BME280;47353;51.614;5.530;2022-10-16T11:15:01;101480.03;;;26.03;38.30
59789;BME280;47353;51.614;5.530;2022-10-16T11:17:33;101493.22;;;26.92;35.72
59789;BME280;47353;51.614;5.530;2022-10-16T11:20:23;101491.19;;;27.46;35.76
59789;BME280;47353;51.614;5.530;2022-10-16T11:22:57;101485.31;;;28.97;33.63
59789;BME280;47353;51.614;5.530;2022-10-16T11:25:30;101480.81;;;29.56;32.46
59789;BME280;47353;51.614;5.530;2022-10-16T11:28:14;101478.09;;;29.33;32.20
59789;BME280;47353;51.614;5.530;2022-10-16T11:30:43;101483.97;;;27.14;33.74
59789;BME280;47353;51.614;5.530;2022-10-16T11:33:24;101489.09;;;24.98;36.53
59789;BME280;47353;51.614;5.530;2022-10-16T11:38:48;101488.97;;;26.36;36.97
59789;BME280;47353;51.614;5.530;2022-10-16T11:46:40;101498.59;;;26.16;36.30
59789;BME280;47353;51.614;5.530;2022-10-16T11:49:26;101503.63;;;26.54;37.64
59789;BME280;47353;51.614;5.530;2022-10-16T11:54:51;101500.13;;;26.76;36.15
59789;BME280;47353;51.614;5.530;2022-10-16T11:57:21;101506.69;;;25.71;37.26
59789;BME280;47353;51.614;5.530;2022-10-16T11:59:55;101504.09;;;24.14;40.38
59789;BME280;47353;51.614;5.530;2022-10-16T12:05:32;101500.91;;;22.48;43.93
59789;BME280;47353;51.614;5.530;2022-10-16T12:08:02;101497.22;;;21.72;44.76
59789;BME280;47353;51.614;5.530;2022-10-16T12:10:31;101484.72;;;21.18;46.03
59789;BME280;47353;51.614;5.530;2022-10-16T12:13:38;101492.09;;;21.66;46.85
59789;BME280;47353;51.614;5.530;2022-10-16T12:18:45;101494.09;;;22.98;44.51
59789;BME280;47353;51.614;5.530;2022-10-16T12:21:16;101502.28;;;23.86;41.86
59789;BME280;47353;51.614;5.530;2022-10-16T12:23:49;101504.84;;;24.72;40.08
59789;BME280;47353;51.614;5.530;2022-10-16T12:26:33;101519.25;;;25.58;38.46
59789;BME280;47353;51.614;5.530;2022-10-16T12:29:28;101517.75;;;27.54;35.20
59789;BME280;47353;51.614;5.530;2022-10-16T12:31:55;101509.03;;;28.30;34.35
59789;BME280;47353;51.614;5.530;2022-10-16T12:36:53;101509.69;;;27.79;33.68
59789;BME280;47353;51.614;5.530;2022-10-16T12:39:24;101508.88;;;27.78;33.39
59789;BME280;47353;51.614;5.530;2022-10-16T12:42:05;101509.78;;;27.44;34.59
59789;BME280;47353;51.614;5.530;2022-10-16T12:44:43;101504.66;;;25.44;35.76
59789;BME280;47353;51.614;5.530;2022-10-16T12:49:54;101504.56;;;23.19;40.54
59789;BME280;47353;51.614;5.530;2022-10-16T12:54:56;101502.97;;;22.30;44.28
59789;BME280;47353;51.614;5.530;2022-10-16T13:32:34;101514.38;;;25.43;36.81
59789;BME280;47353;51.614;5.530;2022-10-16T13:34:59;101507.91;;;24.54;39.21
59789;BME280;47353;51.614;5.530;2022-10-16T13:37:26;101512.03;;;23.76;40.16
59789;BME280;47353;51.614;5.530;2022-10-16T13:40:06;101519.53;;;22.98;42.22
59789;BME280;47353;51.614;5.530;2022-10-16T13:42:37;101523.03;;;22.37;43.17
59789;BME280;47353;51.614;5.530;2022-10-16T13:45:02;101520.38;;;21.95;43.92
59789;BME280;47353;51.614;5.530;2022-10-16T13:47:29;101517.84;;;22.10;44.86
59789;BME280;47353;51.614;5.530;2022-10-16T13:50:12;101522.38;;;22.32;45.92
59789;BME280;47353;51.614;5.530;2022-10-16T13:52:38;101513.66;;;22.16;46.89
59789;BME280;47353;51.614;5.530;2022-10-16T13:55:10;101525.59;;;21.59;47.54
59789;BME280;47353;51.614;5.530;2022-10-16T13:57:36;101523.41;;;21.73;45.63
59789;BME280;47353;51.614;5.530;2022-10-16T14:00:01;101522.44;;;21.52;46.33
59789;BME280;47353;51.614;5.530;2022-10-16T14:02:38;101515.13;;;21.76;45.88
59789;BME280;47353;51.614;5.530;2022-10-16T14:05:08;101528.25;;;21.64;46.57
59789;BME280;47353;51.614;5.530;2022-10-16T14:07:35;101513.66;;;21.62;46.16
59789;BME280;47353;51.614;5.530;2022-10-16T14:10:04;101527.56;;;21.75;45.96
59789;BME280;47353;51.614;5.530;2022-10-16T14:12:30;101520.94;;;21.80;45.45
59789;BME280;47353;51.614;5.530;2022-10-16T14:14:57;101523.13;;;22.20;46.09
59789;BME280;47353;51.614;5.530;2022-10-16T14:17:31;101517.13;;;22.88;46.91
59789;BME280;47353;51.614;5.530;2022-10-16T14:20:00;101511.94;;;22.90;44.02
59789;BME280;47353;51.614;5.530;2022-10-16T14:22:32;101520.97;;;22.84;45.66
59789;BME280;47353;51.614;5.530;2022-10-16T14:24:58;101513.72;;;22.08;45.72
59789;BME280;47353;51.614;5.530;2022-10-16T14:32:41;101506.75;;;20.99;52.37
59789;BME280;47353;51.614;5.530;2022-10-16T14:35:25;101515.69;;;21.10;51.30
59789;BME280;47353;51.614;5.530;2022-10-16T14:37:52;101505.53;;;20.75;52.62
59789;BME280;47353;51.614;5.530;2022-10-16T14:40:18;101509.16;;;20.67;52.15
59789;BME280;47353;51.614;5.530;2022-10-16T14:42:45;101508.97;;;20.55;51.95
59789;BME280;47353;51.614;5.530;2022-10-16T14:45:11;101498.81;;;20.37;51.91
59789;BME280;47353;51.614;5.530;2022-10-16T14:47:52;101495.03;;;20.41;54.08
59789;BME280;47353;51.614;5.530;2022-10-16T14:50:18;101497.19;;;20.44;54.43
59789;BME280;47353;51.614;5.530;2022-10-16T14:52:43;101503.66;;;20.53;55.31